createdAt,value
2018-03-16T00:01:13.371Z,2.90
2018-03-16T00:03:39.959Z,4.60
2018-03-16T00:06:06.600Z,3.72
2018-03-16T00:08:33.200Z,3.92
2018-03-16T00:11:00.293Z,3.47
2018-03-16T00:13:26.905Z,2.85
2018-03-16T00:15:53.545Z,3.03
2018-03-16T00:18:20.147Z,3.60
2018-03-16T00:20:46.737Z,3.30
2018-03-16T00:23:13.325Z,3.58
2018-03-16T00:25:39.956Z,3.05
2018-03-16T00:28:06.518Z,3.72
2018-03-16T00:30:33.126Z,3.40
2018-03-16T00:32:59.709Z,4.45
2018-03-16T00:35:26.302Z,2.50
2018-03-16T00:37:52.894Z,2.87
2018-03-16T00:40:20.282Z,2.90
2018-03-16T00:42:46.869Z,3.67
2018-03-16T00:45:13.474Z,4.25
2018-03-16T00:47:40.061Z,3.35
2018-03-16T00:50:06.650Z,3.30
2018-03-16T00:52:33.246Z,4.18
2018-03-16T00:54:59.842Z,3.33
2018-03-16T00:57:26.431Z,2.95
2018-03-16T00:59:53.013Z,3.45
2018-03-16T01:02:19.609Z,4.47
2018-03-16T01:04:46.201Z,3.00
2018-03-16T01:07:12.799Z,5.37
2018-03-16T01:09:39.391Z,3.67
2018-03-16T01:12:06.079Z,3.30
2018-03-16T01:14:32.682Z,3.22
2018-03-16T01:16:59.266Z,3.15
2018-03-16T01:19:25.904Z,2.67
2018-03-16T01:21:53.549Z,2.95
2018-03-16T01:24:20.139Z,4.65
2018-03-16T01:26:46.832Z,2.65
2018-03-16T01:29:13.416Z,4.22
2018-03-16T01:31:40.020Z,3.47
2018-03-16T01:34:06.609Z,3.55
2018-03-16T01:36:33.231Z,3.75
2018-03-16T01:38:59.818Z,3.72
2018-03-16T01:41:26.434Z,4.20
2018-03-16T01:43:53.017Z,2.95
2018-03-16T01:46:19.705Z,5.10
2018-03-16T01:48:46.308Z,3.55
2018-03-16T01:51:12.964Z,3.70
2018-03-16T01:53:39.512Z,3.58
2018-03-16T01:56:06.934Z,3.10
2018-03-16T01:58:33.525Z,4.95
2018-03-16T02:01:00.128Z,4.05
2018-03-16T02:03:26.782Z,3.70
2018-03-16T02:05:53.378Z,2.60
2018-03-16T02:08:20.057Z,3.65
2018-03-16T02:10:46.672Z,3.67
2018-03-16T02:13:13.250Z,5.57
2018-03-16T02:15:39.852Z,4.70
2018-03-16T02:18:06.451Z,3.60
2018-03-16T02:20:33.139Z,3.83
2018-03-16T02:22:59.725Z,6.20
2018-03-16T02:25:26.327Z,3.72
2018-03-16T02:27:52.936Z,4.20
2018-03-16T02:30:19.536Z,5.53
2018-03-16T02:32:46.123Z,5.22
2018-03-16T02:35:12.707Z,4.25
2018-03-16T02:37:39.392Z,3.30
2018-03-16T02:40:06.036Z,3.40
2018-03-16T02:42:32.626Z,3.55
2018-03-16T02:44:59.313Z,3.35
2018-03-16T02:47:25.912Z,3.90
2018-03-16T02:49:52.501Z,3.65
2018-03-16T02:52:19.099Z,3.67
2018-03-16T02:54:45.704Z,4.47
2018-03-16T02:57:12.281Z,4.12
2018-03-16T02:59:38.871Z,3.58
2018-03-16T03:02:05.465Z,2.50
2018-03-16T03:04:32.043Z,3.92
2018-03-16T03:06:58.639Z,4.43
2018-03-16T03:09:25.239Z,4.15
2018-03-16T03:11:51.895Z,3.78
2018-03-16T03:14:18.504Z,4.37
2018-03-16T03:16:45.167Z,4.80
2018-03-16T03:19:11.749Z,3.50
2018-03-16T03:21:38.356Z,3.90
2018-03-16T03:24:04.964Z,3.17
2018-03-16T03:26:31.571Z,5.03
2018-03-16T03:28:58.209Z,5.10
2018-03-16T03:31:24.873Z,4.78
2018-03-16T03:33:51.462Z,3.75
2018-03-16T03:36:18.059Z,4.70
2018-03-16T03:38:44.700Z,2.83
2018-03-16T03:41:11.304Z,3.80
2018-03-16T03:43:37.954Z,5.47
2018-03-16T03:46:04.594Z,4.47
2018-03-16T03:48:31.225Z,4.12
2018-03-16T03:50:57.812Z,4.50
2018-03-16T03:53:24.512Z,4.32
2018-03-16T03:55:51.119Z,3.58
2018-03-16T03:58:19.284Z,5.45
2018-03-16T04:00:45.874Z,5.35
2018-03-16T04:03:12.480Z,4.20
2018-03-16T04:05:39.070Z,4.93
2018-03-16T04:08:05.701Z,4.43
2018-03-16T04:10:32.271Z,3.17
2018-03-16T04:12:58.872Z,4.45
2018-03-16T04:15:25.458Z,4.10
2018-03-16T04:17:52.049Z,4.28
2018-03-16T04:20:18.654Z,5.40
2018-03-16T04:22:45.257Z,4.55
2018-03-16T04:25:11.845Z,4.20
2018-03-16T04:27:38.437Z,3.83
2018-03-16T04:30:05.944Z,4.37
2018-03-16T04:32:32.538Z,3.95
2018-03-16T04:34:59.145Z,3.37
2018-03-16T04:37:25.818Z,4.90
2018-03-16T04:39:52.442Z,5.43
2018-03-16T04:42:19.088Z,6.37
2018-03-16T04:44:45.697Z,4.05
2018-03-16T04:47:12.364Z,4.30
2018-03-16T04:49:38.968Z,4.10
2018-03-16T04:52:05.584Z,5.03
2018-03-16T04:54:32.154Z,4.30
2018-03-16T04:56:59.889Z,5.07
2018-03-16T04:59:26.489Z,3.90
2018-03-16T05:01:53.087Z,4.47
2018-03-16T05:04:19.680Z,4.20
2018-03-16T05:06:46.269Z,4.65
2018-03-16T05:09:12.912Z,3.95
2018-03-16T05:11:39.503Z,4.82
2018-03-16T05:14:06.187Z,4.12
2018-03-16T05:16:32.771Z,3.80
2018-03-16T05:18:59.445Z,4.87
2018-03-16T05:21:26.056Z,5.07
2018-03-16T05:23:52.717Z,5.20
2018-03-16T05:26:19.306Z,4.53
2018-03-16T05:28:45.886Z,4.20
2018-03-16T05:31:12.526Z,4.20
2018-03-16T05:33:39.132Z,6.60
2018-03-16T05:36:05.806Z,4.20
2018-03-16T05:38:32.394Z,5.10
2018-03-16T05:40:58.982Z,3.58
2018-03-16T05:43:25.642Z,3.70
2018-03-16T05:45:53.021Z,5.70
2018-03-16T05:48:19.604Z,4.97
2018-03-16T05:50:46.216Z,5.62
2018-03-16T05:53:12.879Z,4.78
2018-03-16T05:55:39.480Z,5.10
2018-03-16T05:58:06.071Z,5.68
2018-03-16T06:00:32.653Z,3.97
2018-03-16T06:02:59.256Z,4.55
2018-03-16T06:05:25.846Z,5.37
2018-03-16T06:07:52.501Z,5.70
2018-03-16T06:10:20.119Z,5.07
2018-03-16T06:12:46.742Z,5.15
2018-03-16T06:15:13.341Z,5.53
2018-03-16T06:17:39.960Z,4.80
2018-03-16T06:20:06.762Z,4.22
2018-03-16T06:22:33.380Z,4.20
2018-03-16T06:25:00.066Z,5.57
2018-03-16T06:27:26.681Z,5.97
2018-03-16T06:29:53.284Z,5.55
2018-03-16T06:32:19.904Z,5.20
2018-03-16T06:34:46.521Z,5.00
2018-03-16T06:37:13.124Z,5.78
2018-03-16T06:39:40.659Z,5.78
2018-03-16T06:42:07.268Z,4.40
2018-03-16T06:44:33.871Z,6.28
2018-03-16T06:47:01.518Z,4.95
2018-03-16T06:49:28.177Z,5.10
2018-03-16T06:51:54.816Z,5.22
2018-03-16T06:54:22.266Z,4.40
2018-03-16T06:56:48.850Z,6.75
2018-03-16T06:59:15.439Z,4.65
2018-03-16T07:01:42.025Z,5.10
2018-03-16T07:04:09.358Z,5.55
2018-03-16T07:06:35.972Z,5.18
2018-03-16T07:09:02.562Z,6.32
2018-03-16T07:11:29.161Z,4.10
2018-03-16T07:13:55.768Z,5.62
2018-03-16T07:16:22.420Z,5.65
2018-03-16T07:18:49.028Z,4.72
2018-03-16T07:21:15.614Z,6.95
2018-03-16T07:23:43.030Z,5.78
2018-03-16T07:26:09.658Z,6.65
2018-03-16T07:28:36.248Z,6.05
2018-03-16T07:31:02.856Z,6.72
2018-03-16T07:33:29.579Z,6.95
2018-03-16T07:35:56.518Z,5.40
2018-03-16T07:38:23.103Z,6.15
2018-03-16T07:40:50.746Z,4.82
2018-03-16T07:43:18.274Z,5.75
2018-03-16T07:45:50.765Z,5.70
2018-03-16T07:48:17.383Z,6.90
2018-03-16T07:50:43.989Z,8.05
2018-03-16T07:53:10.579Z,6.57
2018-03-16T07:55:38.114Z,5.82
2018-03-16T07:58:04.732Z,5.53
2018-03-16T08:00:31.343Z,5.10
2018-03-16T08:02:58.612Z,6.62
2018-03-16T08:05:25.271Z,5.80
2018-03-16T08:07:52.654Z,6.65
2018-03-16T08:10:19.260Z,6.20
2018-03-16T08:12:45.917Z,6.30
2018-03-16T08:15:12.578Z,5.95
2018-03-16T08:17:39.196Z,4.80
2018-03-16T08:20:05.790Z,6.95
2018-03-16T08:22:32.396Z,5.15
2018-03-16T08:24:59.929Z,5.60
2018-03-16T08:27:26.541Z,7.32
2018-03-16T08:29:53.148Z,6.22
2018-03-16T08:32:19.748Z,7.03
2018-03-16T08:34:46.346Z,5.28
2018-03-16T08:37:12.956Z,7.05
2018-03-16T08:39:39.543Z,8.73
2018-03-16T08:42:06.158Z,6.78
2018-03-16T08:44:32.798Z,5.62
2018-03-16T08:46:59.400Z,5.87
2018-03-16T08:49:26.000Z,6.37
2018-03-16T08:51:52.616Z,5.40
2018-03-16T08:54:19.234Z,5.82
2018-03-16T08:56:45.835Z,5.82
2018-03-16T08:59:12.414Z,5.57
2018-03-16T09:01:39.770Z,8.05
2018-03-16T09:04:06.363Z,6.60
2018-03-16T09:06:32.965Z,6.28
2018-03-16T09:09:00.214Z,7.18
2018-03-16T09:11:26.830Z,6.20
2018-03-16T09:13:53.429Z,7.85
2018-03-16T09:16:20.018Z,7.30
2018-03-16T09:18:47.634Z,5.30
2018-03-16T09:21:14.285Z,7.18
2018-03-16T09:23:40.930Z,9.40
2018-03-16T09:26:07.568Z,7.07
2018-03-16T09:28:34.177Z,7.05
2018-03-16T09:31:01.777Z,8.10
2018-03-16T09:33:28.395Z,6.18
2018-03-16T09:35:55.004Z,6.10
2018-03-16T09:38:21.615Z,6.25
2018-03-16T09:40:48.312Z,8.00
2018-03-16T09:43:14.907Z,7.62
2018-03-16T09:45:41.494Z,6.10
2018-03-16T09:48:08.090Z,7.10
2018-03-16T09:50:35.728Z,5.65
2018-03-16T09:53:02.292Z,6.60
2018-03-16T09:55:46.547Z,6.18
2018-03-16T09:58:13.138Z,6.90
2018-03-16T10:00:39.748Z,6.85
2018-03-16T10:03:06.497Z,8.25
2018-03-16T10:05:33.126Z,7.20
2018-03-16T10:07:59.737Z,7.10
2018-03-16T10:10:27.798Z,6.15
2018-03-16T10:12:54.405Z,7.30
2018-03-16T10:15:21.101Z,7.78
2018-03-16T10:17:47.704Z,6.47
2018-03-16T10:20:14.278Z,6.53
2018-03-16T10:22:40.908Z,8.00
2018-03-16T10:25:07.502Z,7.28
2018-03-16T10:27:34.095Z,6.68
2018-03-16T10:30:00.704Z,7.18
2018-03-16T10:32:27.309Z,7.10
2018-03-16T10:34:53.916Z,6.95
2018-03-16T10:37:20.518Z,6.78
2018-03-16T10:39:47.105Z,8.07
2018-03-16T10:42:14.491Z,9.15
2018-03-16T10:44:41.111Z,5.62
2018-03-16T10:47:07.702Z,7.10
2018-03-16T10:49:34.290Z,6.72
2018-03-16T10:52:01.646Z,5.80
2018-03-16T10:54:28.233Z,4.30
2018-03-16T10:56:54.947Z,7.65
2018-03-16T10:59:21.589Z,5.55
2018-03-16T11:01:53.929Z,6.90
2018-03-16T11:04:20.531Z,8.40
2018-03-16T11:06:47.113Z,6.55
2018-03-16T11:09:13.763Z,6.30
2018-03-16T11:11:40.571Z,6.07
2018-03-16T11:14:07.180Z,5.82
2018-03-16T11:16:34.665Z,5.93
2018-03-16T11:19:01.314Z,8.57
2018-03-16T11:21:27.921Z,7.53
2018-03-16T11:23:54.512Z,7.35
2018-03-16T11:26:21.136Z,7.25
2018-03-16T11:28:47.737Z,5.32
2018-03-16T11:31:14.358Z,6.72
2018-03-16T11:33:40.979Z,8.02
2018-03-16T11:36:07.576Z,7.28
2018-03-16T11:38:34.180Z,8.18
2018-03-16T11:41:00.785Z,7.68
2018-03-16T11:43:27.435Z,9.43
2018-03-16T11:45:54.127Z,11.27
2018-03-16T11:48:20.722Z,9.75
2018-03-16T11:50:47.317Z,8.18
2018-03-16T11:53:13.918Z,9.50
2018-03-16T11:55:40.509Z,9.98
2018-03-16T11:58:07.094Z,6.95
2018-03-16T12:00:33.705Z,9.80
2018-03-16T12:03:00.312Z,8.80
2018-03-16T12:05:26.924Z,8.20
2018-03-16T12:07:53.514Z,7.18
2018-03-16T12:10:20.129Z,8.93
2018-03-16T12:12:46.805Z,7.80
2018-03-16T12:15:13.460Z,7.97
2018-03-16T12:17:40.068Z,8.00
2018-03-16T12:20:06.672Z,8.57
2018-03-16T12:22:33.268Z,8.60
2018-03-16T12:24:59.858Z,7.62
2018-03-16T12:27:26.451Z,5.55
2018-03-16T12:29:53.061Z,5.70
2018-03-16T12:32:19.657Z,6.72
2018-03-16T12:34:46.254Z,6.60
2018-03-16T12:37:13.738Z,7.20
2018-03-16T12:39:40.330Z,7.32
2018-03-16T12:42:06.966Z,5.03
2018-03-16T12:44:33.586Z,5.25
2018-03-16T12:47:00.194Z,5.78
2018-03-16T12:49:27.556Z,5.45
2018-03-16T12:51:54.153Z,6.40
2018-03-16T12:54:20.756Z,5.37
2018-03-16T12:56:47.390Z,6.12
2018-03-16T12:59:13.998Z,7.18
2018-03-16T13:01:40.589Z,5.45
2018-03-16T13:04:07.181Z,5.30
2018-03-16T13:06:33.773Z,7.70
2018-03-16T13:09:00.436Z,6.40
2018-03-16T13:11:27.020Z,5.97
2018-03-16T13:13:53.680Z,6.68
2018-03-16T13:16:20.243Z,6.43
2018-03-16T13:18:46.842Z,5.37
2018-03-16T13:21:13.449Z,5.47
2018-03-16T13:23:40.053Z,5.95
2018-03-16T13:26:06.646Z,8.57
2018-03-16T13:28:33.256Z,4.50
2018-03-16T13:30:59.872Z,5.90
2018-03-16T13:33:26.450Z,5.95
2018-03-16T13:35:53.054Z,5.97
2018-03-16T13:38:19.651Z,7.72
2018-03-16T13:40:46.329Z,7.37
2018-03-16T13:43:12.925Z,5.95
2018-03-16T13:45:40.149Z,5.97
2018-03-16T13:48:06.762Z,5.37
2018-03-16T13:50:33.394Z,8.00
2018-03-16T13:53:00.020Z,7.50
2018-03-16T13:55:26.621Z,6.45
2018-03-16T13:57:53.210Z,6.47
2018-03-16T14:00:19.804Z,7.82
2018-03-16T14:02:46.474Z,5.07
2018-03-16T14:05:13.114Z,8.30
2018-03-16T14:07:39.742Z,5.80
2018-03-16T14:10:06.363Z,6.68
2018-03-16T14:12:33.039Z,4.97
2018-03-16T14:17:42.236Z,5.18
2018-03-16T14:20:08.940Z,5.62
2018-03-16T14:22:36.368Z,7.15
2018-03-16T14:25:02.966Z,5.97
2018-03-16T14:27:29.551Z,6.35
2018-03-16T14:29:56.907Z,5.45
2018-03-16T14:32:23.483Z,6.05
2018-03-16T14:34:50.098Z,4.05
2018-03-16T14:37:17.608Z,5.85
2018-03-16T14:39:44.250Z,4.05
2018-03-16T14:42:10.842Z,5.70
2018-03-16T14:44:37.432Z,3.70
2018-03-16T14:47:04.023Z,6.37
2018-03-16T14:49:30.628Z,6.50
2018-03-16T14:51:58.579Z,5.28
2018-03-16T14:54:25.134Z,4.40
2018-03-16T14:56:51.726Z,8.35
2018-03-16T14:59:18.320Z,3.78
2018-03-16T15:01:45.049Z,6.00
2018-03-16T15:04:11.752Z,5.78
2018-03-16T15:06:38.355Z,6.40
2018-03-16T15:09:04.956Z,8.10
2018-03-16T15:11:32.284Z,11.73
2018-03-16T15:13:58.881Z,10.05
2018-03-16T15:16:25.474Z,8.95
2018-03-16T15:18:52.075Z,9.02
2018-03-16T15:21:18.693Z,10.77
2018-03-16T15:23:45.351Z,8.45
2018-03-16T15:26:12.000Z,8.57
2018-03-16T15:28:38.626Z,8.48
2018-03-16T15:31:05.222Z,8.60
2018-03-16T15:33:31.913Z,7.25
2018-03-16T15:35:59.331Z,7.70
2018-03-16T15:38:25.920Z,7.68
2018-03-16T15:40:52.538Z,7.18
2018-03-16T15:43:19.151Z,8.45
2018-03-16T15:45:45.741Z,7.95
2018-03-16T15:48:12.338Z,7.55
2018-03-16T15:50:38.945Z,7.28
2018-03-16T15:53:05.549Z,9.57
2018-03-16T15:55:32.160Z,6.93
2018-03-16T15:57:58.742Z,6.45
2018-03-16T16:00:25.338Z,8.15
2018-03-16T16:02:52.927Z,6.65
2018-03-16T16:05:19.608Z,7.87
2018-03-16T16:07:46.209Z,7.82
2018-03-16T16:10:12.803Z,7.30
2018-03-16T16:12:39.407Z,5.62
2018-03-16T16:15:06.075Z,5.78
2018-03-16T16:17:32.681Z,8.38
2018-03-16T16:19:59.266Z,8.60
2018-03-16T16:22:26.809Z,8.20
2018-03-16T16:24:53.386Z,5.03
2018-03-16T16:27:20.458Z,6.87
2018-03-16T16:29:47.064Z,6.30
2018-03-16T16:32:13.653Z,6.00
2018-03-16T16:34:40.277Z,6.60
2018-03-16T16:37:06.863Z,5.80
2018-03-16T16:39:33.469Z,5.82
2018-03-16T16:42:00.188Z,6.28
2018-03-16T16:44:26.792Z,7.40
2018-03-16T16:46:53.389Z,4.80
2018-03-16T16:49:20.094Z,5.43
2018-03-16T16:51:46.700Z,6.47
2018-03-16T16:54:13.284Z,4.82
2018-03-16T16:56:39.908Z,5.12
2018-03-16T16:59:06.516Z,4.40
2018-03-16T17:01:33.110Z,6.47
2018-03-16T17:03:59.698Z,5.05
2018-03-16T17:06:26.303Z,5.40
2018-03-16T17:08:52.900Z,6.55
2018-03-16T17:11:19.508Z,6.80
2018-03-16T17:13:46.142Z,5.40
2018-03-16T17:16:12.778Z,4.75
2018-03-16T17:18:39.370Z,5.05
2018-03-16T17:21:05.979Z,8.82
2018-03-16T17:23:32.582Z,7.47
2018-03-16T17:25:59.232Z,4.50
2018-03-16T17:28:25.826Z,5.97
2018-03-16T17:30:52.432Z,4.35
2018-03-16T17:33:19.022Z,7.60
2018-03-16T17:35:45.626Z,5.05
2018-03-16T17:38:12.214Z,4.62
2018-03-16T17:40:38.821Z,5.20
2018-03-16T17:43:05.441Z,6.43
2018-03-16T17:45:32.040Z,6.47
2018-03-16T17:47:59.264Z,8.10
2018-03-16T17:50:25.877Z,6.95
2018-03-16T17:52:52.716Z,7.47
2018-03-16T17:55:20.363Z,5.43
2018-03-16T17:57:46.937Z,6.28
2018-03-16T18:00:13.549Z,5.45
2018-03-16T18:02:40.229Z,4.78
2018-03-16T18:05:07.744Z,5.18
2018-03-16T18:07:34.342Z,7.60
2018-03-16T18:10:00.935Z,5.07
2018-03-16T18:12:27.518Z,5.97
2018-03-16T18:14:54.120Z,4.65
2018-03-16T18:17:20.930Z,4.00
2018-03-16T18:19:47.529Z,7.28
2018-03-16T18:22:14.122Z,4.97
2018-03-16T18:24:40.721Z,5.47
2018-03-16T18:27:08.148Z,6.53
2018-03-16T18:29:34.749Z,6.22
2018-03-16T18:32:01.375Z,5.37
2018-03-16T18:34:28.022Z,4.15
2018-03-16T18:36:54.640Z,3.97
2018-03-16T18:39:21.312Z,5.90
2018-03-16T18:41:47.937Z,6.57
2018-03-16T18:44:14.575Z,7.18
2018-03-16T18:46:41.130Z,3.90
2018-03-16T18:49:08.471Z,4.32
2018-03-16T18:51:35.076Z,5.75
2018-03-16T18:54:01.677Z,5.10
2018-03-16T18:56:28.268Z,3.78
2018-03-16T18:58:54.898Z,3.83
2018-03-16T19:01:21.530Z,4.78
2018-03-16T19:03:48.188Z,4.75
2018-03-16T19:06:14.803Z,3.90
2018-03-16T19:08:41.394Z,4.03
2018-03-16T19:11:07.991Z,5.03
2018-03-16T19:13:35.044Z,4.57
2018-03-16T19:16:02.293Z,2.55
2018-03-16T19:18:29.713Z,5.15
2018-03-16T19:20:56.427Z,4.22
2018-03-16T19:23:24.223Z,5.50
2018-03-16T19:25:51.803Z,4.87
2018-03-16T19:28:18.614Z,5.72
2018-03-16T19:30:45.778Z,4.22
2018-03-16T19:33:12.364Z,3.90
2018-03-16T19:35:39.058Z,5.70
2018-03-16T19:38:05.646Z,5.40
2018-03-16T19:40:32.238Z,3.97
2018-03-16T19:42:58.838Z,6.50
2018-03-16T19:45:25.538Z,4.00
2018-03-16T19:47:52.141Z,4.53
2018-03-16T19:50:18.788Z,5.25
2018-03-16T19:52:45.476Z,3.75
2018-03-16T19:55:12.066Z,5.75
2018-03-16T19:57:38.670Z,5.82
2018-03-16T20:00:05.262Z,5.25
2018-03-16T20:02:32.131Z,6.93
2018-03-16T20:04:58.759Z,6.22
2018-03-16T20:07:25.598Z,4.90
2018-03-16T20:09:52.196Z,7.00
2018-03-16T20:12:18.794Z,5.00
2018-03-16T20:14:45.415Z,4.45
2018-03-16T20:17:12.028Z,4.40
2018-03-16T20:19:38.636Z,4.65
2018-03-16T20:22:05.247Z,3.95
2018-03-16T20:24:32.711Z,4.40
2018-03-16T20:26:59.314Z,3.08
2018-03-16T20:29:26.288Z,2.75
2018-03-16T20:31:56.018Z,5.10
2018-03-16T20:34:24.468Z,3.62
2018-03-16T20:36:51.130Z,4.45
2018-03-16T20:39:17.668Z,4.18
2018-03-16T20:41:44.306Z,3.70
2018-03-16T20:44:11.244Z,3.40
2018-03-16T20:46:37.840Z,5.80
2018-03-16T20:49:05.267Z,4.50
2018-03-16T20:51:31.876Z,3.42
2018-03-16T20:53:58.695Z,5.40
2018-03-16T20:56:25.408Z,2.50
2018-03-16T20:58:52.006Z,3.33
2018-03-16T21:01:18.716Z,3.80
2018-03-16T21:03:45.365Z,2.97
2018-03-16T21:06:11.978Z,3.58
2018-03-16T21:08:38.925Z,2.08
2018-03-16T21:11:05.508Z,2.90
2018-03-16T21:13:32.218Z,3.00
2018-03-16T21:15:58.812Z,3.45
2018-03-16T21:18:25.416Z,2.95
2018-03-16T21:20:53.552Z,2.67
2018-03-16T21:23:20.808Z,1.75
2018-03-16T21:25:47.435Z,3.08
2018-03-16T21:28:14.084Z,2.80
2018-03-16T21:30:40.683Z,2.87
2018-03-16T21:33:07.288Z,2.90
2018-03-16T21:35:33.892Z,2.67
2018-03-16T21:38:00.478Z,2.90
2018-03-16T21:40:27.110Z,3.58
2018-03-16T21:42:53.705Z,2.60
2018-03-16T21:45:20.314Z,2.70
2018-03-16T21:47:46.909Z,3.75
2018-03-16T21:50:14.428Z,2.53
2018-03-16T21:52:41.024Z,2.67
2018-03-16T21:55:07.624Z,2.58
2018-03-16T21:57:35.226Z,3.08
2018-03-16T22:00:02.606Z,3.10
2018-03-16T22:02:29.212Z,3.45
2018-03-16T22:04:55.988Z,2.67
2018-03-16T22:07:22.574Z,2.90
2018-03-16T22:09:49.260Z,2.72
2018-03-16T22:12:16.438Z,3.17
2018-03-16T22:14:43.056Z,2.47
2018-03-16T22:17:09.669Z,2.95
2018-03-16T22:19:36.259Z,2.22
2018-03-16T22:22:02.860Z,2.58
2018-03-16T22:24:29.464Z,3.47
2018-03-16T22:26:57.453Z,2.30
2018-03-16T22:29:24.056Z,2.37
2018-03-16T22:31:50.915Z,2.25
2018-03-16T22:34:18.376Z,2.08
2018-03-16T22:36:44.978Z,1.98
2018-03-16T22:39:11.574Z,1.92
2018-03-16T22:41:38.690Z,2.47
2018-03-16T22:44:05.296Z,3.12
2018-03-16T22:46:32.130Z,2.30
2018-03-16T22:48:59.546Z,2.20
2018-03-16T22:51:26.541Z,2.12
2018-03-16T22:53:53.134Z,2.08
2018-03-16T22:56:19.732Z,2.08
2018-03-16T22:58:46.378Z,2.20
2018-03-16T23:01:12.982Z,2.40
2018-03-16T23:03:39.669Z,1.92
2018-03-16T23:06:06.264Z,2.00
2018-03-16T23:08:32.940Z,2.17
2018-03-16T23:10:59.628Z,2.22
2018-03-16T23:13:27.117Z,2.10
2018-03-16T23:15:53.720Z,2.00
2018-03-16T23:18:20.310Z,2.78
2018-03-16T23:20:46.903Z,2.70
2018-03-16T23:23:13.494Z,2.50
2018-03-16T23:25:40.086Z,3.03
2018-03-16T23:28:06.693Z,2.03
2018-03-16T23:30:33.949Z,1.75
2018-03-16T23:33:01.181Z,2.40
2018-03-16T23:35:27.884Z,1.70
2018-03-16T23:37:54.506Z,2.50
2018-03-16T23:40:21.114Z,3.37
2018-03-16T23:42:47.790Z,1.83
2018-03-16T23:45:14.396Z,3.55
2018-03-16T23:47:40.982Z,2.67
2018-03-16T23:50:08.327Z,2.58
2018-03-16T23:52:34.910Z,2.22
2018-03-16T23:55:01.520Z,2.33
2018-03-16T23:57:28.121Z,2.40
2018-03-16T23:59:55.738Z,2.33
